Time;durP1;ratioP1;P1;durP2;ratioP2;P2;SDS_P1;SDS_P2;PMS_P1;PMS_P2;Temp;Humidity;BMP_temperature;BMP_pressure;BME280_temperature;BME280_humidity;BME280_pressure;Samples;Min_cycle;Max_cycle;Signal;HPM_P1;HPM_P2
2023/09/18 00:00:45;;;;;;;30.83;23.35;;;;;;;;;;5034509;28;20361;-64
2023/09/18 00:03:11;;;;;;;36.70;26.38;;;;;;;;;;5034547;28;20048;-64
2023/09/18 00:05:37;;;;;;;37.88;28.10;;;;;;;;;;5033927;28;20044;-64
2023/09/18 00:08:03;;;;;;;32.40;25.00;;;;;;;;;;5034279;28;20128;-64
2023/09/18 00:10:30;;;;;;;29.58;24.73;;;;;;;;;;5034422;28;20057;-64
2023/09/18 00:12:56;;;;;;;33.88;26.08;;;;;;;;;;5034032;28;20041;-64
2023/09/18 00:15:22;;;;;;;32.70;25.35;;;;;;;;;;5016145;28;20107;-64
2023/09/18 00:17:48;;;;;;;32.28;25.50;;;;;;;;;;5050838;28;20041;-64
2023/09/18 00:20:17;;;;;;;34.55;27.25;;;;;;;;;;5053694;28;20037;-64
2023/09/18 00:22:43;;;;;;;35.72;25.92;;;;;;;;;;5054148;28;20079;-64
2023/09/18 00:25:09;;;;;;;38.70;28.13;;;;;;;;;;5050567;28;20679;-64
2023/09/18 00:27:38;;;;;;;33.33;25.88;;;;;;;;;;5033808;28;20038;-64
2023/09/18 00:30:06;;;;;;;38.13;28.58;;;;;;;;;;5033926;28;20380;-64
2023/09/18 00:32:32;;;;;;;37.67;27.88;;;;;;;;;;5016090;28;20407;-64
2023/09/18 00:34:58;;;;;;;41.13;28.80;;;;;;;;;;5033204;28;20128;-64
2023/09/18 00:37:24;;;;;;;36.65;26.50;;;;;;;;;;5033984;28;20041;-64
2023/09/18 00:39:50;;;;;;;39.13;28.25;;;;;;;;;;5033590;28;20099;-64
2023/09/18 00:42:17;;;;;;;38.33;29.13;;;;;;;;;;5033302;28;20037;-64
2023/09/18 00:44:44;;;;;;;38.47;28.92;;;;;;;;;;5033654;28;20066;-64
2023/09/18 00:47:10;;;;;;;36.22;27.90;;;;;;;;;;5033824;28;20041;-64
2023/09/18 00:49:39;;;;;;;37.80;28.83;;;;;;;;;;5015061;28;20072;-64
2023/09/18 00:52:06;;;;;;;37.15;26.35;;;;;;;;;;5033765;28;20404;-64
2023/09/18 00:54:33;;;;;;;34.50;26.23;;;;;;;;;;5033533;28;20037;-64
2023/09/18 00:57:00;;;;;;;32.55;25.45;;;;;;;;;;5033238;28;20048;-64
2023/09/18 00:59:26;;;;;;;34.67;27.15;;;;;;;;;;5033367;28;20038;-64
2023/09/18 01:01:52;;;;;;;40.10;27.85;;;;;;;;;;5033374;28;20038;-64
2023/09/18 01:04:18;;;;;;;33.63;26.30;;;;;;;;;;5032873;28;20046;-64
2023/09/18 01:06:45;;;;;;;33.63;25.25;;;;;;;;;;5033338;28;20037;-64
2023/09/18 01:09:14;;;;;;;36.67;26.05;;;;;;;;;;5032955;28;20044;-64
2023/09/18 01:11:44;;;;;;;35.33;25.52;;;;;;;;;;5032827;28;20049;-64
2023/09/18 01:14:17;;;;;;;35.13;24.67;;;;;;;;;;5033102;28;20042;-64
2023/09/18 01:16:57;;;;;;;31.50;24.30;;;;;;;;;;5040853;28;20033;-64
2023/09/18 01:19:36;;;;;;;35.67;25.70;;;;;;;;;;5052627;28;20529;-64
2023/09/18 01:22:02;;;;;;;31.95;25.25;;;;;;;;;;5052986;28;20494;-64
2023/09/18 01:24:28;;;;;;;28.90;22.73;;;;;;;;;;5052705;28;20179;-64
2023/09/18 01:26:54;;;;;;;33.95;24.00;;;;;;;;;;5034458;28;20470;-64
2023/09/18 01:29:20;;;;;;;32.10;24.55;;;;;;;;;;5032902;28;20091;-64
2023/09/18 01:31:48;;;;;;;38.88;24.85;;;;;;;;;;5032838;28;20124;-64
2023/09/18 01:34:17;;;;;;;27.52;23.30;;;;;;;;;;5032347;28;20519;-64
2023/09/18 01:36:44;;;;;;;32.05;25.38;;;;;;;;;;5032868;28;20041;-64
2023/09/18 01:39:11;;;;;;;32.42;24.92;;;;;;;;;;5032644;28;20516;-64
2023/09/18 01:41:38;;;;;;;34.58;25.85;;;;;;;;;;5032229;28;20083;-64
2023/09/18 01:44:05;;;;;;;32.17;26.55;;;;;;;;;;5032610;28;20045;-64
2023/09/18 01:46:32;;;;;;;34.40;25.67;;;;;;;;;;5032637;28;20037;-64
2023/09/18 01:48:59;;;;;;;30.27;24.27;;;;;;;;;;5032123;28;20033;-64
2023/09/18 01:51:25;;;;;;;31.55;24.73;;;;;;;;;;5032114;28;20136;-64
2023/09/18 01:53:52;;;;;;;36.95;26.02;;;;;;;;;;5032308;28;20033;-64
2023/09/18 01:56:18;;;;;;;33.13;25.88;;;;;;;;;;5031899;28;20037;-64
2023/09/18 01:58:44;;;;;;;30.75;24.15;;;;;;;;;;5014025;28;20049;-64
2023/09/18 02:01:10;;;;;;;31.98;25.30;;;;;;;;;;5032211;28;20049;-64
2023/09/18 02:03:36;;;;;;;30.30;24.50;;;;;;;;;;5031881;28;20047;-64
2023/09/18 02:06:03;;;;;;;36.83;26.73;;;;;;;;;;5032255;28;20041;-64
2023/09/18 02:08:29;;;;;;;39.15;28.88;;;;;;;;;;5032300;28;20115;-64
2023/09/18 02:10:55;;;;;;;36.08;27.58;;;;;;;;;;5031865;28;20042;-64
2023/09/18 02:13:21;;;;;;;34.63;26.83;;;;;;;;;;5014020;28;20057;-64
2023/09/18 02:15:47;;;;;;;34.60;27.33;;;;;;;;;;5031971;28;20487;-64
2023/09/18 02:18:13;;;;;;;40.75;30.00;;;;;;;;;;5051569;28;20045;-64
2023/09/18 02:20:44;;;;;;;35.90;29.08;;;;;;;;;;5051900;28;20049;-64
2023/09/18 02:23:10;;;;;;;35.45;26.75;;;;;;;;;;5051945;28;20265;-64
2023/09/18 02:25:36;;;;;;;31.02;27.05;;;;;;;;;;5044196;28;20064;-64
2023/09/18 02:28:02;;;;;;;37.25;29.23;;;;;;;;;;5013808;28;20132;-64
2023/09/18 02:30:28;;;;;;;44.13;30.45;;;;;;;;;;5031775;28;20065;-64
2023/09/18 02:32:55;;;;;;;33.33;26.73;;;;;;;;;;5031083;28;20038;-64
2023/09/18 02:35:21;;;;;;;33.70;27.13;;;;;;;;;;5031636;28;20045;-64
2023/09/18 02:37:47;;;;;;;35.20;28.83;;;;;;;;;;5031718;28;20473;-64
2023/09/18 02:40:13;;;;;;;31.63;26.75;;;;;;;;;;5031257;28;20435;-64
2023/09/18 02:42:39;;;;;;;40.03;28.98;;;;;;;;;;5031648;28;20037;-64
2023/09/18 02:45:06;;;;;;;36.03;27.13;;;;;;;;;;5031541;28;20044;-64
2023/09/18 02:47:33;;;;;;;34.20;26.55;;;;;;;;;;5031237;28;20037;-64
2023/09/18 02:49:59;;;;;;;34.50;26.40;;;;;;;;;;5031245;28;20053;-64
2023/09/18 02:52:25;;;;;;;37.22;27.58;;;;;;;;;;5031445;28;20381;-64
2023/09/18 02:54:51;;;;;;;33.15;25.55;;;;;;;;;;5030627;28;20029;-64
2023/09/18 02:57:18;;;;;;;32.22;26.65;;;;;;;;;;5031451;28;20041;-64
2023/09/18 02:59:44;;;;;;;38.90;29.15;;;;;;;;;;5031130;28;20060;-64
2023/09/18 03:02:11;;;;;;;34.00;26.55;;;;;;;;;;5030738;28;20128;-64
2023/09/18 03:04:37;;;;;;;34.88;25.80;;;;;;;;;;5013112;28;20037;-64
2023/09/18 03:07:03;;;;;;;30.95;24.50;;;;;;;;;;5031233;28;20949;-64
2023/09/18 03:09:30;;;;;;;32.20;25.00;;;;;;;;;;5029757;28;20084;-64
2023/09/18 03:11:56;;;;;;;31.38;24.42;;;;;;;;;;5031265;28;20045;-64
2023/09/18 03:14:22;;;;;;;31.85;25.17;;;;;;;;;;5031094;28;20037;-64
2023/09/18 03:16:48;;;;;;;32.92;25.98;;;;;;;;;;5038919;28;20060;-64
2023/09/18 03:19:14;;;;;;;33.13;24.60;;;;;;;;;;5051097;28;20053;-64
2023/09/18 03:21:40;;;;;;;31.25;25.42;;;;;;;;;;5051068;28;20041;-64
2023/09/18 03:24:06;;;;;;;30.17;23.17;;;;;;;;;;5050580;28;20099;-64
2023/09/18 03:26:32;;;;;;;32.88;24.45;;;;;;;;;;5036214;28;20046;-64
2023/09/18 03:28:58;;;;;;;35.30;23.98;;;;;;;;;;5030995;28;20396;-64
2023/09/18 03:31:24;;;;;;;32.47;25.00;;;;;;;;;;5030502;28;20040;-64
2023/09/18 03:33:50;;;;;;;27.25;23.00;;;;;;;;;;5030481;28;20046;-64
2023/09/18 03:36:16;;;;;;;27.23;21.60;;;;;;;;;;5029674;28;20033;-64
2023/09/18 03:38:42;;;;;;;32.38;23.05;;;;;;;;;;5030434;28;20073;-64
2023/09/18 03:41:08;;;;;;;31.42;23.48;;;;;;;;;;5030567;28;20042;-64
2023/09/18 03:43:34;;;;;;;29.55;22.05;;;;;;;;;;5030228;28;20164;-64
2023/09/18 03:46:07;;;;;;;31.48;22.98;;;;;;;;;;5029961;28;20120;-64
2023/09/18 03:48:37;;;;;;;30.05;22.15;;;;;;;;;;5030155;28;20034;-64
2023/09/18 03:51:05;;;;;;;26.45;21.42;;;;;;;;;;5029931;28;20136;-64
2023/09/18 03:53:33;;;;;;;29.63;21.38;;;;;;;;;;5029783;28;20045;-64
2023/09/18 03:55:59;;;;;;;25.73;19.60;;;;;;;;;;5030266;28;20095;-64
2023/09/18 03:58:25;;;;;;;26.15;19.58;;;;;;;;;;5030750;28;20411;-64
2023/09/18 04:00:51;;;;;;;26.88;19.90;;;;;;;;;;5030375;28;20052;-64
2023/09/18 04:03:17;;;;;;;27.05;19.00;;;;;;;;;;5030741;28;20041;-64
2023/09/18 04:05:43;;;;;;;22.73;19.15;;;;;;;;;;5030640;28;20049;-64
2023/09/18 04:08:10;;;;;;;24.73;19.17;;;;;;;;;;5030273;28;20048;-64
2023/09/18 04:10:37;;;;;;;28.15;19.48;;;;;;;;;;5030684;28;20045;-64
2023/09/18 04:13:03;;;;;;;25.25;18.58;;;;;;;;;;5030570;28;20080;-64
2023/09/18 04:15:32;;;;;;;26.67;20.33;;;;;;;;;;5029746;28;20041;-64
2023/09/18 04:17:58;;;;;;;24.92;20.10;;;;;;;;;;5048524;28;20036;-64
2023/09/18 04:20:25;;;;;;;27.85;21.35;;;;;;;;;;5051662;28;20056;-64
2023/09/18 04:23:11;;;;;;;23.70;19.02;;;;;;;;;;5053585;28;20041;-64
2023/09/18 04:25:37;;;;;;;25.95;18.42;;;;;;;;;;5046376;28;20493;-64
2023/09/18 04:28:03;;;;;;;24.30;17.98;;;;;;;;;;5033923;28;20500;-64
2023/09/18 04:30:29;;;;;;;29.35;20.70;;;;;;;;;;5033594;28;20044;-64
2023/09/18 04:32:55;;;;;;;29.27;19.88;;;;;;;;;;5033978;28;20108;-64
2023/09/18 04:35:25;;;;;;;29.85;19.75;;;;;;;;;;5033644;28;20034;-64
2023/09/18 04:37:51;;;;;;;27.08;20.42;;;;;;;;;;5033506;28;20048;-64
2023/09/18 04:40:17;;;;;;;30.17;19.33;;;;;;;;;;5033940;28;20045;-64
2023/09/18 04:42:43;;;;;;;27.35;21.52;;;;;;;;;;5033780;28;20074;-64
2023/09/18 04:45:09;;;;;;;31.50;22.40;;;;;;;;;;5033152;28;20069;-64
2023/09/18 04:47:35;;;;;;;26.33;20.85;;;;;;;;;;5033789;28;20124;-64
2023/09/18 04:50:08;;;;;;;30.27;20.20;;;;;;;;;;5011553;28;20069;-65
2023/09/18 04:52:34;;;;;;;28.52;19.77;;;;;;;;;;5013409;28;20134;-65
2023/09/18 04:55:00;;;;;;;28.95;19.77;;;;;;;;;;4996006;28;20457;-65
2023/09/18 04:57:26;;;;;;;32.80;22.70;;;;;;;;;;5013546;28;20073;-65
2023/09/18 04:59:52;;;;;;;30.95;22.75;;;;;;;;;;5013413;28;20077;-65
2023/09/18 05:02:18;;;;;;;30.60;21.85;;;;;;;;;;5013716;28;20045;-65
2023/09/18 05:04:45;;;;;;;26.95;19.98;;;;;;;;;;4995835;28;20158;-65
2023/09/18 05:07:11;;;;;;;27.30;19.33;;;;;;;;;;5013027;28;20089;-65
2023/09/18 05:09:38;;;;;;;32.55;21.20;;;;;;;;;;5013332;28;20053;-65
2023/09/18 05:12:08;;;;;;;24.40;18.00;;;;;;;;;;5013594;28;20050;-65
2023/09/18 05:14:34;;;;;;;22.83;16.13;;;;;;;;;;5012820;28;20042;-65
2023/09/18 05:17:00;;;;;;;19.27;15.73;;;;;;;;;;5023398;28;20484;-65
2023/09/18 05:19:26;;;;;;;26.17;17.60;;;;;;;;;;5033105;28;20044;-65
2023/09/18 05:21:52;;;;;;;25.55;19.25;;;;;;;;;;5032778;28;20080;-65
2023/09/18 05:24:26;;;;;;;23.50;19.13;;;;;;;;;;5033014;28;20045;-65
2023/09/18 05:26:52;;;;;;;26.30;17.98;;;;;;;;;;5015543;28;20046;-65
2023/09/18 05:29:18;;;;;;;20.95;16.40;;;;;;;;;;5012779;28;20493;-65
2023/09/18 05:31:45;;;;;;;30.42;20.17;;;;;;;;;;5012260;28;20038;-65
2023/09/18 05:34:11;;;;;;;27.45;20.02;;;;;;;;;;5012991;28;20760;-65
2023/09/18 05:36:38;;;;;;;23.42;17.92;;;;;;;;;;5012644;28;20061;-65
2023/09/18 05:39:04;;;;;;;25.63;17.40;;;;;;;;;;5012971;28;20052;-65
2023/09/18 05:41:31;;;;;;;26.17;18.73;;;;;;;;;;5012522;28;20550;-65
2023/09/18 05:43:57;;;;;;;24.77;17.55;;;;;;;;;;5012525;28;20049;-65
2023/09/18 05:46:23;;;;;;;22.73;16.27;;;;;;;;;;5012952;28;20041;-65
2023/09/18 05:48:49;;;;;;;23.27;16.98;;;;;;;;;;5012807;28;20721;-65
2023/09/18 05:51:15;;;;;;;22.33;15.55;;;;;;;;;;5026292;28;20537;-65
2023/09/18 05:53:41;;;;;;;23.80;16.00;;;;;;;;;;5032134;28;20037;-65
2023/09/18 05:56:09;;;;;;;22.80;15.73;;;;;;;;;;5032466;28;20515;-65
2023/09/18 05:58:35;;;;;;;25.92;15.60;;;;;;;;;;5032152;28;20087;-65
2023/09/18 06:01:02;;;;;;;24.25;16.15;;;;;;;;;;5031914;28;20087;-65
2023/09/18 06:03:30;;;;;;;24.88;15.18;;;;;;;;;;5032157;28;20033;-65
2023/09/18 06:05:56;;;;;;;23.83;15.77;;;;;;;;;;5032383;28;20052;-65
2023/09/18 06:08:23;;;;;;;23.45;14.75;;;;;;;;;;5031461;28;20038;-65
2023/09/18 06:10:49;;;;;;;18.35;14.13;;;;;;;;;;5032055;28;20038;-65
2023/09/18 06:13:15;;;;;;;22.13;14.32;;;;;;;;;;5031862;28;20044;-65
2023/09/18 06:15:41;;;;;;;22.02;14.07;;;;;;;;;;5031541;28;20033;-65
2023/09/18 06:18:07;;;;;;;26.00;15.82;;;;;;;;;;5051168;28;20118;-65
2023/09/18 06:20:33;;;;;;;17.80;13.63;;;;;;;;;;5051913;28;20036;-65
2023/09/18 06:22:59;;;;;;;21.13;13.60;;;;;;;;;;5051561;28;20052;-65
2023/09/18 06:25:25;;;;;;;21.63;13.77;;;;;;;;;;5045889;28;20044;-65
2023/09/18 06:27:52;;;;;;;21.80;14.13;;;;;;;;;;5031616;28;20052;-65
2023/09/18 06:30:18;;;;;;;23.08;14.90;;;;;;;;;;5031408;28;20152;-65
2023/09/18 06:32:44;;;;;;;18.60;14.13;;;;;;;;;;5031695;28;20472;-65
2023/09/18 06:35:10;;;;;;;19.10;13.63;;;;;;;;;;5026072;28;20519;-64
2023/09/18 06:37:36;;;;;;;22.08;14.13;;;;;;;;;;5050072;28;20123;-65
2023/09/18 06:40:05;;;;;;;21.63;13.68;;;;;;;;;;5060273;28;20607;-65
2023/09/18 06:42:32;;;;;;;18.20;13.00;;;;;;;;;;5053344;28;20054;-64
2023/09/18 06:44:58;;;;;;;19.05;12.65;;;;;;;;;;5070744;28;20052;-65
2023/09/18 06:47:24;;;;;;;20.20;13.48;;;;;;;;;;5070590;28;20044;-65
2023/09/18 06:49:51;;;;;;;19.00;12.55;;;;;;;;;;5071076;28;20068;-65
2023/09/18 06:52:17;;;;;;;25.38;14.07;;;;;;;;;;5070503;28;20048;-65
2023/09/18 06:54:43;;;;;;;27.27;14.63;;;;;;;;;;5070815;28;20166;-65
2023/09/18 06:57:10;;;;;;;36.47;16.33;;;;;;;;;;5038393;28;20099;-65
2023/09/18 06:59:36;;;;;;;27.90;17.70;;;;;;;;;;5052655;28;20476;-65
2023/09/18 07:02:03;;;;;;;36.55;18.60;;;;;;;;;;5071108;28;20356;-64
2023/09/18 07:04:29;;;;;;;36.20;19.40;;;;;;;;;;5070799;28;20510;-64
2023/09/18 07:06:56;;;;;;;38.35;21.05;;;;;;;;;;5070141;28;20540;-64
2023/09/18 07:09:23;;;;;;;48.00;21.98;;;;;;;;;;5070869;28;20048;-63
2023/09/18 07:11:49;;;;;;;34.35;21.55;;;;;;;;;;5070835;28;20047;-63
2023/09/18 07:14:15;;;;;;;33.03;19.77;;;;;;;;;;5064284;28;20040;-64
2023/09/18 07:16:41;;;;;;;33.45;19.85;;;;;;;;;;5041956;28;20029;-64
2023/09/18 07:19:11;;;;;;;34.83;20.25;;;;;;;;;;5056678;28;20124;-64
2023/09/18 07:21:37;;;;;;;28.58;17.13;;;;;;;;;;5070563;28;20049;-64
2023/09/18 07:24:03;;;;;;;48.25;22.15;;;;;;;;;;5064596;28;20044;-64
2023/09/18 07:26:30;;;;;;;31.48;19.00;;;;;;;;;;5056635;28;20488;-64
2023/09/18 07:28:56;;;;;;;56.97;23.38;;;;;;;;;;5070360;28;20539;-64
2023/09/18 07:31:22;;;;;;;33.75;20.27;;;;;;;;;;5070170;28;20041;-64
2023/09/18 07:33:48;;;;;;;34.85;21.27;;;;;;;;;;5052543;28;20572;-64
2023/09/18 07:36:15;;;;;;;37.47;20.95;;;;;;;;;;5048307;28;20037;-64
2023/09/18 07:38:43;;;;;;;33.92;19.92;;;;;;;;;;5052200;28;20053;-64
2023/09/18 07:41:09;;;;;;;45.15;22.35;;;;;;;;;;5070189;28;20044;-64
2023/09/18 07:43:35;;;;;;;30.73;18.77;;;;;;;;;;5063208;28;20504;-64
2023/09/18 07:46:02;;;;;;;34.30;21.27;;;;;;;;;;5069896;28;20048;-64
2023/09/18 07:48:28;;;;;;;44.47;22.60;;;;;;;;;;5069665;28;20048;-64
2023/09/18 07:50:55;;;;;;;53.83;24.98;;;;;;;;;;5060932;28;20071;-64
2023/09/18 07:53:21;;;;;;;38.13;21.92;;;;;;;;;;5069925;28;20051;-64
2023/09/18 07:55:49;;;;;;;45.97;23.98;;;;;;;;;;5071315;28;20041;-64
2023/09/18 07:58:16;;;;;;;41.38;24.17;;;;;;;;;;5063730;28;20051;-64
2023/09/18 08:00:42;;;;;;;45.50;24.73;;;;;;;;;;5061428;28;20048;-64
2023/09/18 08:03:08;;;;;;;49.05;25.65;;;;;;;;;;5073934;28;20043;-64
2023/09/18 08:05:34;;;;;;;54.63;25.95;;;;;;;;;;5072688;28;20056;-64
2023/09/18 08:08:00;;;;;;;45.30;25.88;;;;;;;;;;5067118;28;20049;-64
2023/09/18 08:10:26;;;;;;;40.80;23.83;;;;;;;;;;5073389;28;20071;-64
2023/09/18 08:12:53;;;;;;;38.17;22.70;;;;;;;;;;5046756;28;20051;-64
2023/09/18 08:15:22;;;;;;;73.03;28.42;;;;;;;;;;5059777;28;20507;-64
2023/09/18 08:17:49;;;;;;;59.05;26.98;;;;;;;;;;5070569;28;20459;-64
2023/09/18 08:20:15;;;;;;;44.33;23.77;;;;;;;;;;5072804;28;20119;-64
2023/09/18 08:22:43;;;;;;;38.00;23.38;;;;;;;;;;5073455;28;20119;-64
2023/09/18 08:25:10;;;;;;;36.45;21.70;;;;;;;;;;5059830;28;20098;-64
2023/09/18 08:27:40;;;;;;;44.88;23.92;;;;;;;;;;5061027;28;20055;-64
2023/09/18 08:30:06;;;;;;;39.58;23.35;;;;;;;;;;5070939;28;20056;-64
2023/09/18 08:32:33;;;;;;;41.08;24.02;;;;;;;;;;5069137;28;20041;-64
2023/09/18 08:35:01;;;;;;;40.97;23.92;;;;;;;;;;5072436;28;20039;-64
2023/09/18 08:37:27;;;;;;;38.13;22.90;;;;;;;;;;5072530;28;20099;-64
2023/09/18 08:39:54;;;;;;;45.67;23.40;;;;;;;;;;5073002;28;20044;-64
2023/09/18 08:42:21;;;;;;;47.22;24.17;;;;;;;;;;5048468;28;20090;-64
2023/09/18 08:44:49;;;;;;;54.20;24.20;;;;;;;;;;5039021;28;20121;-64
2023/09/18 08:47:15;;;;;;;48.33;24.27;;;;;;;;;;5035833;28;20041;-64
2023/09/18 08:49:42;;;;;;;48.60;24.50;;;;;;;;;;5052421;28;20056;-64
2023/09/18 08:52:09;;;;;;;47.42;24.83;;;;;;;;;;5048270;28;20450;-64
2023/09/18 08:54:35;;;;;;;46.60;24.77;;;;;;;;;;5057478;28;20498;-64
2023/09/18 08:57:01;;;;;;;48.38;25.15;;;;;;;;;;5072458;28;20375;-64
2023/09/18 08:59:28;;;;;;;48.08;25.30;;;;;;;;;;5072335;28;20058;-64
2023/09/18 09:01:54;;;;;;;43.80;24.02;;;;;;;;;;5072755;28;20132;-64
2023/09/18 09:04:20;;;;;;;45.05;25.98;;;;;;;;;;5056375;28;20446;-64
2023/09/18 09:06:47;;;;;;;43.65;24.73;;;;;;;;;;5056994;28;20049;-64
2023/09/18 09:09:14;;;;;;;43.80;25.33;;;;;;;;;;5072417;28;20044;-64
2023/09/18 09:11:48;;;;;;;53.55;27.35;;;;;;;;;;5071979;28;20044;-64
2023/09/18 09:14:21;;;;;;;50.42;26.65;;;;;;;;;;5072491;28;20068;-64
2023/09/18 09:16:48;;;;;;;57.63;27.98;;;;;;;;;;5063727;28;20045;-64
2023/09/18 09:19:16;;;;;;;46.90;26.10;;;;;;;;;;5061348;28;20068;-64
2023/09/18 09:21:43;;;;;;;46.95;26.58;;;;;;;;;;5072385;28;20040;-64
2023/09/18 09:24:13;;;;;;;49.13;26.58;;;;;;;;;;5072209;28;20049;-64
2023/09/18 09:26:40;;;;;;;45.78;26.58;;;;;;;;;;5060294;28;20371;-64
2023/09/18 09:29:20;;;;;;;44.42;26.27;;;;;;;;;;5072227;28;20120;-64
2023/09/18 09:31:46;;;;;;;46.55;27.17;;;;;;;;;;5071969;28;20106;-64
2023/09/18 09:34:12;;;;;;;47.28;26.27;;;;;;;;;;5071730;28;20036;-64
2023/09/18 09:36:54;;;;;;;48.92;28.10;;;;;;;;;;5071938;28;20036;-64
2023/09/18 09:39:21;;;;;;;41.60;24.73;;;;;;;;;;5071408;28;20048;-64
2023/09/18 09:41:49;;;;;;;46.30;26.58;;;;;;;;;;5071712;28;20503;-64
2023/09/18 09:44:15;;;;;;;46.92;27.10;;;;;;;;;;5071613;28;20075;-64
2023/09/18 09:46:51;;;;;;;38.10;24.88;;;;;;;;;;5053072;28;20044;-64
2023/09/18 09:49:19;;;;;;;40.38;23.77;;;;;;;;;;5031526;28;20049;-64
2023/09/18 09:51:45;;;;;;;36.97;23.60;;;;;;;;;;5051264;28;20092;-64
2023/09/18 09:54:12;;;;;;;42.90;24.98;;;;;;;;;;5062593;28;20060;-64
2023/09/18 09:56:45;;;;;;;40.47;24.42;;;;;;;;;;5053610;28;20078;-64
2023/09/18 09:59:12;;;;;;;33.60;22.13;;;;;;;;;;5059254;28;20037;-65
2023/09/18 10:01:38;;;;;;;29.27;21.55;;;;;;;;;;5071686;28;20051;-64
2023/09/18 10:04:13;;;;;;;26.75;19.35;;;;;;;;;;5071010;28;20074;-64
2023/09/18 10:06:42;;;;;;;26.80;19.08;;;;;;;;;;5071153;28;20120;-64
2023/09/18 10:09:10;;;;;;;26.70;19.15;;;;;;;;;;5070818;28;20063;-64
2023/09/18 10:11:41;;;;;;;28.33;19.27;;;;;;;;;;5060723;28;20044;-65
2023/09/18 10:14:37;;;;;;;21.10;17.50;;;;;;;;;;5071323;28;20040;-64
2023/09/18 10:17:17;;;;;;;21.10;16.13;;;;;;;;;;5050034;28;20480;-64
2023/09/18 10:19:53;;;;;;;21.67;16.80;;;;;;;;;;5055795;28;20064;-64
2023/09/18 10:22:37;;;;;;;19.17;17.15;;;;;;;;;;5051044;28;20045;-65
2023/09/18 10:25:18;;;;;;;24.13;16.67;;;;;;;;;;5062737;28;20421;-65
2023/09/18 10:27:53;;;;;;;19.55;16.88;;;;;;;;;;5062172;28;20040;-64
2023/09/18 10:30:19;;;;;;;19.15;15.73;;;;;;;;;;5021261;28;20046;-65
2023/09/18 10:32:48;;;;;;;17.80;14.32;;;;;;;;;;5048296;28;20043;-66
2023/09/18 10:35:14;;;;;;;21.67;14.90;;;;;;;;;;5041307;28;20044;-64
2023/09/18 10:37:43;;;;;;;16.98;13.98;;;;;;;;;;5048625;28;20039;-67
2023/09/18 10:40:09;;;;;;;14.15;12.65;;;;;;;;;;5044517;28;20071;-66
2023/09/18 10:42:38;;;;;;;14.98;11.00;;;;;;;;;;5032622;28;20052;-66
2023/09/18 10:45:04;;;;;;;12.27;10.52;;;;;;;;;;5036134;28;20047;-68
2023/09/18 10:47:31;;;;;;;13.85;11.25;;;;;;;;;;5066914;28;20170;-65
2023/09/18 10:49:57;;;;;;;11.63;9.00;;;;;;;;;;5065678;28;20486;-66
2023/09/18 10:52:23;;;;;;;10.60;9.07;;;;;;;;;;5042425;28;20075;-65
2023/09/18 10:54:49;;;;;;;9.68;8.15;;;;;;;;;;5055487;28;20394;-66
2023/09/18 10:57:15;;;;;;;11.07;7.30;;;;;;;;;;5061569;28;20427;-65
2023/09/18 10:59:45;;;;;;;12.38;8.40;;;;;;;;;;5064719;28;20420;-65
2023/09/18 11:02:14;;;;;;;11.00;8.27;;;;;;;;;;5058333;28;20620;-65
2023/09/18 11:04:41;;;;;;;9.10;8.20;;;;;;;;;;5049651;28;20045;-64
2023/09/18 11:07:07;;;;;;;11.45;7.75;;;;;;;;;;5059476;28;20487;-65
2023/09/18 11:09:46;;;;;;;9.40;6.85;;;;;;;;;;5063734;28;20044;-64
2023/09/18 11:12:12;;;;;;;12.15;7.47;;;;;;;;;;5051230;28;20044;-64
2023/09/18 11:14:56;;;;;;;10.43;6.97;;;;;;;;;;5061034;28;20032;-67
2023/09/18 11:17:33;;;;;;;9.38;7.60;;;;;;;;;;5048095;28;20072;-67
2023/09/18 11:20:04;;;;;;;7.72;5.70;;;;;;;;;;5034799;28;20049;-66
2023/09/18 11:22:30;;;;;;;7.78;6.90;;;;;;;;;;5048757;28;20067;-65
2023/09/18 11:25:16;;;;;;;12.95;7.55;;;;;;;;;;5067883;28;20041;-65
2023/09/18 11:28:01;;;;;;;7.95;7.15;;;;;;;;;;5065697;28;20078;-66
2023/09/18 11:30:28;;;;;;;10.77;7.03;;;;;;;;;;5070855;28;20040;-65
2023/09/18 11:32:55;;;;;;;8.65;6.95;;;;;;;;;;5042102;28;20044;-65
2023/09/18 11:35:21;;;;;;;13.77;7.38;;;;;;;;;;5050956;28;20421;-65
2023/09/18 11:37:48;;;;;;;11.48;7.00;;;;;;;;;;5051817;28;20041;-64
2023/09/18 11:40:33;;;;;;;9.18;6.38;;;;;;;;;;5051937;28;20041;-65
2023/09/18 11:43:18;;;;;;;7.35;6.50;;;;;;;;;;5051105;28;20711;-66
2023/09/18 11:45:47;;;;;;;9.02;6.15;;;;;;;;;;5058252;28;20131;-64
2023/09/18 11:48:14;;;;;;;7.85;5.40;;;;;;;;;;5071176;28;20044;-64
2023/09/18 11:50:42;;;;;;;6.43;5.82;;;;;;;;;;5073013;28;20044;-65
2023/09/18 11:53:08;;;;;;;6.45;5.43;;;;;;;;;;5051543;28;20063;-65
2023/09/18 11:55:35;;;;;;;8.50;5.72;;;;;;;;;;5051655;28;20195;-64
2023/09/18 11:58:04;;;;;;;9.70;5.80;;;;;;;;;;5052798;28;20052;-64
2023/09/18 12:00:30;;;;;;;5.80;5.20;;;;;;;;;;5073163;28;20040;-64
2023/09/18 12:02:57;;;;;;;7.18;4.90;;;;;;;;;;5053580;28;20043;-64
2023/09/18 12:05:27;;;;;;;7.45;5.30;;;;;;;;;;5051859;28;20129;-65
2023/09/18 12:07:53;;;;;;;8.18;5.43;;;;;;;;;;5049048;28;20067;-65
2023/09/18 12:10:22;;;;;;;7.85;5.20;;;;;;;;;;5065819;28;20048;-65
2023/09/18 12:12:49;;;;;;;8.85;5.40;;;;;;;;;;5070568;28;20037;-64
2023/09/18 12:15:17;;;;;;;5.85;4.70;;;;;;;;;;5054434;28;20091;-65
2023/09/18 12:17:43;;;;;;;7.35;4.93;;;;;;;;;;5051286;28;20549;-65
2023/09/18 12:20:19;;;;;;;7.50;5.20;;;;;;;;;;5051797;28;20361;-65
2023/09/18 12:22:48;;;;;;;7.00;4.63;;;;;;;;;;5052429;28;20067;-66
2023/09/18 12:25:14;;;;;;;5.97;4.40;;;;;;;;;;5043723;28;20067;-65
2023/09/18 12:27:44;;;;;;;8.38;4.57;;;;;;;;;;5061364;28;20754;-64
2023/09/18 12:30:20;;;;;;;7.35;4.45;;;;;;;;;;5072242;28;20048;-64
2023/09/18 12:32:47;;;;;;;4.53;4.05;;;;;;;;;;5071703;28;20529;-65
2023/09/18 12:35:14;;;;;;;5.97;4.35;;;;;;;;;;5040446;28;20115;-65
2023/09/18 12:37:41;;;;;;;8.68;4.00;;;;;;;;;;5029976;28;20048;-65
2023/09/18 12:40:10;;;;;;;5.18;4.47;;;;;;;;;;5040049;28;20459;-65
2023/09/18 12:42:43;;;;;;;6.03;4.32;;;;;;;;;;5067089;28;20036;-65
2023/09/18 12:45:09;;;;;;;4.47;4.00;;;;;;;;;;5042990;28;21461;-64
2023/09/18 12:47:39;;;;;;;9.38;3.85;;;;;;;;;;5054374;28;20044;-64
2023/09/18 12:50:06;;;;;;;6.63;4.32;;;;;;;;;;5048835;28;20708;-64
2023/09/18 12:52:33;;;;;;;8.27;4.10;;;;;;;;;;5041459;28;20041;-65
2023/09/18 12:55:01;;;;;;;8.00;3.83;;;;;;;;;;5028126;28;20371;-65
2023/09/18 12:57:28;;;;;;;6.75;3.92;;;;;;;;;;5045023;28;20051;-66
2023/09/18 12:59:55;;;;;;;7.55;4.30;;;;;;;;;;5043146;28;20063;-65
2023/09/18 13:02:21;;;;;;;5.72;4.03;;;;;;;;;;5051327;28;20049;-66
2023/09/18 13:04:54;;;;;;;5.30;3.60;;;;;;;;;;5036222;28;20056;-66
2023/09/18 13:07:21;;;;;;;5.78;4.20;;;;;;;;;;5054632;28;20044;-67
2023/09/18 13:10:06;;;;;;;8.13;4.07;;;;;;;;;;5049423;28;20067;-65
2023/09/18 13:12:50;;;;;;;5.13;3.85;;;;;;;;;;5064246;28;20127;-66
2023/09/18 13:15:26;;;;;;;8.07;4.53;;;;;;;;;;5063552;28;20041;-66
2023/09/18 13:17:53;;;;;;;8.13;4.57;;;;;;;;;;5035608;28;20033;-66
2023/09/18 13:20:24;;;;;;;4.25;3.83;;;;;;;;;;5048805;28;20049;-65
2023/09/18 13:22:50;;;;;;;5.82;3.72;;;;;;;;;;5060179;28;20482;-65
2023/09/18 13:25:23;;;;;;;7.43;4.15;;;;;;;;;;5041373;28;20052;-66
2023/09/18 13:27:52;;;;;;;7.30;3.83;;;;;;;;;;5054688;28;20097;-66
2023/09/18 13:30:20;;;;;;;6.00;3.90;;;;;;;;;;5041053;28;20103;-66
2023/09/18 13:32:49;;;;;;;6.15;3.95;;;;;;;;;;5035446;28;20120;-65
2023/09/18 13:35:16;;;;;;;5.70;4.38;;;;;;;;;;5061024;28;20032;-65
2023/09/18 13:37:43;;;;;;;5.78;4.07;;;;;;;;;;5068616;28;20045;-65
2023/09/18 13:40:10;;;;;;;7.88;4.30;;;;;;;;;;5057823;28;20044;-66
2023/09/18 13:42:36;;;;;;;6.55;4.40;;;;;;;;;;5056636;28;20079;-66
2023/09/18 13:45:08;;;;;;;6.18;4.28;;;;;;;;;;5035168;28;20047;-65
2023/09/18 13:47:35;;;;;;;5.57;4.50;;;;;;;;;;5050495;28;20040;-65
2023/09/18 13:50:02;;;;;;;6.85;4.65;;;;;;;;;;5051326;28;20052;-65
2023/09/18 13:52:28;;;;;;;8.25;4.20;;;;;;;;;;5058006;28;20052;-65
2023/09/18 13:54:54;;;;;;;6.88;4.47;;;;;;;;;;5054097;28;20028;-65
2023/09/18 13:57:21;;;;;;;7.10;4.32;;;;;;;;;;5040829;28;20076;-65
2023/09/18 13:59:48;;;;;;;7.30;4.40;;;;;;;;;;5047364;28;20495;-65
2023/09/18 14:02:15;;;;;;;6.55;4.13;;;;;;;;;;5051507;28;20472;-64
2023/09/18 14:04:41;;;;;;;7.00;4.75;;;;;;;;;;5029027;28;20081;-65
2023/09/18 14:07:07;;;;;;;5.80;4.43;;;;;;;;;;5061848;28;20482;-65
2023/09/18 14:09:34;;;;;;;7.32;4.32;;;;;;;;;;5040024;28;20076;-64
2023/09/18 14:12:00;;;;;;;5.47;3.90;;;;;;;;;;5070885;28;20503;-64
2023/09/18 14:14:26;;;;;;;5.97;3.67;;;;;;;;;;5069562;28;20075;-65
2023/09/18 14:16:53;;;;;;;4.70;3.70;;;;;;;;;;5061690;28;20481;-65
2023/09/18 14:19:19;;;;;;;5.38;3.53;;;;;;;;;;5055288;28;20079;-65
2023/09/18 14:21:46;;;;;;;8.27;3.65;;;;;;;;;;5058478;28;20127;-65
2023/09/18 14:24:12;;;;;;;6.18;3.20;;;;;;;;;;5045962;28;20091;-65
2023/09/18 14:26:41;;;;;;;4.78;3.30;;;;;;;;;;5052223;28;20076;-65